Time;durP1;ratioP1;P1;durP2;ratioP2;P2;SDS_P1;SDS_P2;PMS_P1;PMS_P2;Temp;Humidity;BMP_temperature;BMP_pressure;BME280_temperature;BME280_humidity;BME280_pressure;Samples;Min_cycle;Max_cycle;Signal;HPM_P1;HPM_P2
2021/04/02 00:00:06;;;;;;;1.20;1.20;;;;;;;9.10;54.75;101615.06;693814;28;19877;-58
2021/04/02 00:00:38;;;;;;;2.08;1.20;;;;;;;9.12;54.71;101612.22;689624;28;138471;-58
2021/04/02 00:01:06;;;;;;;1.70;1.20;;;;;;;9.11;54.74;101618.63;689781;28;135480;-57
2021/04/02 00:01:27;;;;;;;1.30;1.20;;;;;;;9.11;54.96;101616.75;689959;28;138192;-57
2021/04/02 00:01:48;;;;;;;1.20;1.10;;;;;;;9.10;54.82;101616.91;693659;28;23732;-56
2021/04/02 00:02:10;;;;;;;1.70;1.15;;;;;;;9.09;54.87;101616.06;693693;28;22415;-57
2021/04/02 00:02:31;;;;;;;1.60;1.30;;;;;;;9.08;54.89;101616.22;691886;28;42965;-56
2021/04/02 00:02:52;;;;;;;1.58;1.40;;;;;;;9.08;54.90;101611.66;693253;28;24331;-56
2021/04/02 00:03:16;;;;;;;1.20;1.20;;;;;;;9.06;54.87;101621.75;690793;28;22432;-58
2021/04/02 00:03:38;;;;;;;1.35;1.10;;;;;;;9.07;54.82;101625.28;687967;28;92258;-53
2021/04/02 00:03:59;;;;;;;1.27;1.17;;;;;;;9.07;54.93;101619.91;689824;28;40013;-57
2021/04/02 00:04:21;;;;;;;1.38;1.27;;;;;;;9.08;55.02;101618.91;689750;28;1351;-55
2021/04/02 00:04:42;;;;;;;1.50;1.40;;;;;;;9.09;55.00;101615.19;690999;28;17424;-57
2021/04/02 00:05:04;;;;;;;1.52;1.42;;;;;;;9.09;54.92;101613.38;692036;28;21629;-58
2021/04/02 00:05:25;;;;;;;1.58;1.48;;;;;;;9.11;55.18;101613.22;692501;28;43713;-57
2021/04/02 00:05:47;;;;;;;1.40;1.30;;;;;;;9.11;54.84;101619.47;692318;28;23289;-54
2021/04/02 00:06:10;;;;;;;1.30;1.20;;;;;;;9.11;54.67;101616.75;692588;28;46301;-58
2021/04/02 00:06:31;;;;;;;1.17;1.17;;;;;;;9.12;54.76;101623.00;691297;28;69511;-58
2021/04/02 00:06:52;;;;;;;1.33;1.23;;;;;;;9.12;54.86;101614.91;693765;28;16671;-56
2021/04/02 00:07:14;;;;;;;1.33;1.30;;;;;;;9.12;54.98;101618.47;693891;28;18355;-58
2021/04/02 00:07:35;;;;;;;1.23;1.17;;;;;;;9.11;54.92;101616.75;693517;28;44408;-57
2021/04/02 00:07:56;;;;;;;1.30;1.20;;;;;;;9.10;54.95;101619.59;693988;28;22411;-59
2021/04/02 00:08:17;;;;;;;1.63;1.20;;;;;;;9.12;54.79;101617.59;694422;28;23479;-56
2021/04/02 00:08:39;;;;;;;1.38;1.27;;;;;;;9.10;54.83;101615.06;694189;28;5333;-54
2021/04/02 00:09:00;;;;;;;1.52;1.42;;;;;;;9.11;54.70;101621.31;693487;28;42769;-55
2021/04/02 00:09:21;;;;;;;1.60;1.50;;;;;;;9.11;54.74;101622.16;693296;28;22471;-59
2021/04/02 00:09:43;;;;;;;1.50;1.40;;;;;;;9.11;54.62;101615.94;694327;28;1324;-57
2021/04/02 00:10:06;;;;;;;1.52;1.40;;;;;;;9.09;54.86;101616.06;693280;28;36353;-57
2021/04/02 00:10:33;;;;;;;2.60;1.40;;;;;;;9.09;54.58;101623.28;692555;28;70218;-56
2021/04/02 00:10:56;;;;;;;1.30;1.30;;;;;;;9.07;54.82;101611.81;689793;28;138290;-58
2021/04/02 00:11:17;;;;;;;1.40;1.30;;;;;;;9.08;54.81;101617.06;692455;28;66902;-58
2021/04/02 00:11:41;;;;;;;2.33;1.30;;;;;;;9.08;54.75;101619.75;694380;28;942;-58
2021/04/02 00:12:07;;;;;;;1.35;1.20;;;;;;;9.09;54.97;101613.38;693465;28;38796;-57
2021/04/02 00:12:28;;;;;;;1.70;1.20;;;;;;;9.13;54.89;101613.94;692061;28;70517;-56
2021/04/02 00:12:49;;;;;;;1.45;1.20;;;;;;;9.15;54.82;101617.31;693467;28;23458;-58
2021/04/02 00:13:11;;;;;;;1.38;1.30;;;;;;;9.15;54.57;101614.63;693109;28;12776;-58
2021/04/02 00:13:38;;;;;;;1.50;1.40;;;;;;;9.16;54.44;101617.16;692484;28;60698;-58
2021/04/02 00:13:59;;;;;;;1.40;1.30;;;;;;;9.15;54.45;101611.94;693755;28;37039;-54
2021/04/02 00:14:25;;;;;;;1.50;1.40;;;;;;;9.17;54.77;101620.75;693158;28;62007;-57
2021/04/02 00:14:46;;;;;;;1.25;1.25;;;;;;;9.15;54.68;101612.78;693676;28;22148;-58
2021/04/02 00:15:10;;;;;;;1.20;1.20;;;;;;;9.12;54.69;101618.47;693302;28;21517;-58
2021/04/02 00:15:31;;;;;;;2.03;1.25;;;;;;;9.12;54.50;101615.78;691567;28;89007;-59
2021/04/02 00:15:53;;;;;;;3.97;1.60;;;;;;;9.13;54.79;101619.31;693618;28;18359;-58
2021/04/02 00:16:17;;;;;;;2.20;1.30;;;;;;;9.13;54.77;101617.47;693528;28;46333;-57
2021/04/02 00:16:38;;;;;;;1.50;1.30;;;;;;;9.12;54.51;101617.59;691606;28;92334;-57
2021/04/02 00:16:59;;;;;;;1.45;1.30;;;;;;;9.12;54.47;101613.09;693426;28;21539;-60
2021/04/02 00:17:21;;;;;;;1.40;1.30;;;;;;;9.11;54.76;101615.94;694586;28;1161;-57
2021/04/02 00:17:42;;;;;;;1.30;1.20;;;;;;;9.10;54.82;101614.22;693952;28;22598;-59
2021/04/02 00:18:04;;;;;;;1.30;1.20;;;;;;;9.09;54.91;101615.19;693467;28;46000;-57
2021/04/02 00:18:28;;;;;;;1.92;1.30;;;;;;;9.07;54.59;101622.59;693598;28;14932;-59
2021/04/02 00:18:49;;;;;;;2.38;1.40;;;;;;;9.07;54.89;101620.75;692791;28;46800;-58
2021/04/02 00:19:10;;;;;;;1.48;1.38;;;;;;;9.06;54.84;101610.09;693926;28;21525;-58
2021/04/02 00:19:31;;;;;;;1.20;1.20;;;;;;;9.07;54.71;101615.34;693741;28;22188;-55
2021/04/02 00:19:53;;;;;;;1.30;1.20;;;;;;;9.07;54.96;101609.97;694109;28;20141;-56
2021/04/02 00:20:16;;;;;;;1.90;1.30;;;;;;;9.07;54.76;101615.34;693185;28;47278;-59
2021/04/02 00:20:38;;;;;;;2.17;1.38;;;;;;;9.07;54.81;101609.13;692195;28;69208;-56
2021/04/02 00:21:01;;;;;;;1.40;1.30;;;;;;;9.06;54.70;101619.06;693057;28;46432;-57
2021/04/02 00:21:23;;;;;;;1.38;1.27;;;;;;;9.06;54.95;101618.19;694565;28;13923;-57
2021/04/02 00:21:45;;;;;;;1.42;1.33;;;;;;;9.05;54.89;101620.03;695135;28;942;-58
2021/04/02 00:22:06;;;;;;;1.50;1.40;;;;;;;9.05;54.89;101616.50;694351;28;21521;-59
2021/04/02 00:22:27;;;;;;;1.30;1.30;;;;;;;9.04;54.89;101618.34;694312;28;22421;-55
2021/04/02 00:22:49;;;;;;;1.20;1.20;;;;;;;9.04;54.86;101612.94;693631;28;24418;-59
2021/04/02 00:23:11;;;;;;;1.27;1.27;;;;;;;9.04;55.18;101617.50;693868;28;1968;-58
2021/04/02 00:23:33;;;;;;;1.50;1.30;;;;;;;9.02;54.91;101618.47;693359;28;37461;-59
2021/04/02 00:23:54;;;;;;;1.75;1.30;;;;;;;9.04;54.91;101617.50;693145;28;45358;-59
2021/04/02 00:24:16;;;;;;;1.25;1.25;;;;;;;9.05;55.08;101619.19;694341;28;23476;-58
2021/04/02 00:24:37;;;;;;;1.45;1.35;;;;;;;9.02;54.89;101618.47;692528;28;44386;-59
2021/04/02 00:24:58;;;;;;;1.60;1.50;;;;;;;9.01;54.88;101624.88;694247;28;24328;-57
2021/04/02 00:25:20;;;;;;;1.73;1.48;;;;;;;9.01;55.11;101616.81;694023;28;22401;-58
2021/04/02 00:25:42;;;;;;;2.05;1.50;;;;;;;9.02;55.09;101620.34;692608;28;45210;-58
2021/04/02 00:26:05;;;;;;;2.80;1.50;;;;;;;9.00;55.12;101619.63;693006;28;46295;-57
2021/04/02 00:26:26;;;;;;;2.75;1.30;;;;;;;9.00;55.15;101622.34;691671;28;69482;-58
2021/04/02 00:26:47;;;;;;;1.45;1.13;;;;;;;8.99;55.06;101616.06;693982;28;22389;-55
2021/04/02 00:27:09;;;;;;;1.40;1.30;;;;;;;9.01;55.37;101624.00;694297;28;21573;-57
2021/04/02 00:27:30;;;;;;;2.30;1.45;;;;;;;9.01;55.30;101619.50;692995;28;46504;-55
2021/04/02 00:27:51;;;;;;;1.50;1.40;;;;;;;9.02;54.99;101618.47;694803;28;1615;-58
2021/04/02 00:28:12;;;;;;;1.50;1.40;;;;;;;9.01;54.97;101619.50;694138;28;22490;-59
2021/04/02 00:28:34;;;;;;;1.70;1.20;;;;;;;9.02;54.94;101617.63;693629;28;22428;-57
2021/04/02 00:28:55;;;;;;;2.25;1.30;;;;;;;9.02;55.15;101623.03;694311;28;18678;-58
2021/04/02 00:29:16;;;;;;;1.50;1.40;;;;;;;9.03;54.88;101619.34;693068;28;46119;-56
2021/04/02 00:29:37;;;;;;;1.75;1.40;;;;;;;9.04;55.15;101617.50;693251;28;22440;-57
2021/04/02 00:29:58;;;;;;;1.45;1.35;;;;;;;9.02;54.97;101618.47;693747;28;23558;-57
2021/04/02 00:30:25;;;;;;;1.48;1.40;;;;;;;9.04;54.87;101614.81;693925;28;21538;-56
2021/04/02 00:30:48;;;;;;;1.40;1.30;;;;;;;9.04;54.94;101618.34;689795;28;138127;-59
2021/04/02 00:31:09;;;;;;;1.33;1.17;;;;;;;9.06;55.10;101623.56;692572;28;70435;-58
2021/04/02 00:31:30;;;;;;;3.30;1.30;;;;;;;9.06;54.91;101612.78;693189;28;22415;-57
2021/04/02 00:31:51;;;;;;;1.98;1.40;;;;;;;9.08;55.08;101616.22;694401;28;21301;-58
2021/04/02 00:32:12;;;;;;;1.60;1.30;;;;;;;9.08;54.81;101619.75;694165;28;22421;-58
2021/04/02 00:32:33;;;;;;;1.50;1.30;;;;;;;9.08;54.91;101617.06;694250;28;21550;-57
2021/04/02 00:32:54;;;;;;;2.55;1.40;;;;;;;9.08;54.88;101619.75;693166;28;22406;-57
2021/04/02 00:33:17;;;;;;;1.67;1.35;;;;;;;9.10;54.76;101622.31;691053;28;18876;-57
2021/04/02 00:33:39;;;;;;;1.60;1.30;;;;;;;9.09;54.81;101618.78;689402;28;69532;-58
2021/04/02 00:34:00;;;;;;;1.65;1.40;;;;;;;9.08;54.77;101627.00;690548;28;44510;-58
2021/04/02 00:34:21;;;;;;;1.30;1.20;;;;;;;9.07;54.78;101620.75;688529;28;23197;-59
2021/04/02 00:34:42;;;;;;;1.40;1.30;;;;;;;9.06;54.72;101616.38;688368;28;21474;-58
2021/04/02 00:35:04;;;;;;;1.50;1.40;;;;;;;9.09;54.83;101623.28;692549;28;12763;-55
2021/04/02 00:35:26;;;;;;;2.20;1.35;;;;;;;9.09;54.72;101624.16;689628;28;45306;-58
2021/04/02 00:35:47;;;;;;;1.35;1.20;;;;;;;9.09;54.38;101621.47;689513;28;44458;-58
2021/04/02 00:36:08;;;;;;;1.67;1.58;;;;;;;9.10;54.74;101625.00;692753;28;855;-55
2021/04/02 00:36:29;;;;;;;1.67;1.52;;;;;;;9.06;54.79;101623.56;692518;28;22382;-59
2021/04/02 00:36:50;;;;;;;2.05;1.40;;;;;;;9.06;54.71;101621.75;691198;28;20113;-58
2021/04/02 00:37:12;;;;;;;1.38;1.27;;;;;;;9.07;54.82;101618.03;693775;28;22382;-57
2021/04/02 00:37:33;;;;;;;1.45;1.35;;;;;;;9.07;54.71;101625.28;693961;28;9072;-58
2021/04/02 00:37:54;;;;;;;1.60;1.50;;;;;;;9.07;54.79;101614.50;693747;28;23459;-57
2021/04/02 00:38:15;;;;;;;1.47;1.27;;;;;;;9.08;54.42;101621.59;692850;28;45495;-55
2021/04/02 00:38:36;;;;;;;1.55;1.30;;;;;;;9.06;54.45;101620.88;692659;28;46350;-58
2021/04/02 00:38:58;;;;;;;1.40;1.30;;;;;;;9.05;54.66;101628.13;693464;28;23403;-59
2021/04/02 00:39:19;;;;;;;1.50;1.40;;;;;;;9.05;54.68;101624.59;692894;28;16473;-59
2021/04/02 00:39:40;;;;;;;1.50;1.38;;;;;;;9.06;54.43;101627.16;693507;28;23610;-57
2021/04/02 00:40:01;;;;;;;1.80;1.30;;;;;;;9.06;54.50;101619.06;693458;28;35728;-57
2021/04/02 00:40:27;;;;;;;1.95;1.40;;;;;;;9.06;54.43;101627.16;694241;28;22484;-59
2021/04/02 00:40:50;;;;;;;1.70;1.60;;;;;;;9.06;54.45;101626.28;690263;28;136442;-57
2021/04/02 00:41:14;;;;;;;1.48;1.38;;;;;;;9.06;54.47;101626.28;691153;28;92357;-59
2021/04/02 00:41:35;;;;;;;1.75;1.40;;;;;;;9.06;54.45;101624.44;690737;28;92320;-56
2021/04/02 00:41:58;;;;;;;2.30;1.30;;;;;;;9.09;54.39;101620.59;694950;28;926;-55
2021/04/02 00:42:19;;;;;;;1.40;1.40;;;;;;;9.09;54.34;101625.97;690068;28;46317;-58
2021/04/02 00:42:41;;;;;;;1.40;1.30;;;;;;;9.08;54.23;101627.00;691921;28;1467;-57
2021/04/02 00:43:03;;;;;;;1.48;1.40;;;;;;;9.07;54.37;101625.28;689667;28;4552;-58
2021/04/02 00:43:26;;;;;;;1.50;1.40;;;;;;;9.07;54.33;101625.28;689022;28;23427;-57
2021/04/02 00:43:49;;;;;;;1.50;1.40;;;;;;;9.05;54.29;101624.59;688047;28;69502;-58
2021/04/02 00:44:10;;;;;;;1.65;1.20;;;;;;;9.05;54.48;101624.59;690597;28;67515;-56
2021/04/02 00:44:31;;;;;;;1.33;1.23;;;;;;;9.04;54.36;101622.88;692498;28;9689;-58
2021/04/02 00:44:53;;;;;;;1.65;1.40;;;;;;;9.04;54.21;101629.13;692241;28;23411;-57
2021/04/02 00:45:17;;;;;;;2.10;1.30;;;;;;;9.04;54.38;101626.41;692375;28;41646;-57
2021/04/02 00:45:38;;;;;;;1.30;1.30;;;;;;;9.04;54.30;101628.28;690233;28;92397;-55
2021/04/02 00:45:59;;;;;;;1.30;1.30;;;;;;;9.03;54.48;101624.75;692636;28;46381;-58
2021/04/02 00:46:21;;;;;;;1.40;1.40;;;;;;;9.02;54.64;101628.41;694515;28;24570;-58
2021/04/02 00:46:42;;;;;;;1.42;1.33;;;;;;;9.00;54.49;101631.25;694924;28;44414;-57
2021/04/02 00:47:04;;;;;;;1.50;1.40;;;;;;;9.01;54.57;101629.41;696741;28;22375;-59
2021/04/02 00:47:25;;;;;;;1.60;1.30;;;;;;;8.99;54.54;101629.53;694992;28;46411;-57
2021/04/02 00:47:47;;;;;;;1.45;1.35;;;;;;;8.99;54.66;101628.69;693811;28;22417;-57
2021/04/02 00:48:08;;;;;;;1.70;1.40;;;;;;;8.98;54.92;101625.16;692749;28;46318;-59
2021/04/02 00:48:30;;;;;;;1.48;1.40;;;;;;;8.98;54.64;101629.69;693025;28;22294;-59
2021/04/02 00:48:51;;;;;;;1.70;1.60;;;;;;;8.97;55.14;101626.16;689486;28;44396;-59
2021/04/02 00:49:12;;;;;;;1.30;1.30;;;;;;;8.97;54.90;101630.69;689432;28;22395;-59
2021/04/02 00:49:34;;;;;;;1.77;1.30;;;;;;;8.98;54.68;101629.69;690468;28;22395;-59
2021/04/02 00:49:55;;;;;;;2.38;1.40;;;;;;;8.95;54.79;101632.66;688626;28;46333;-59
2021/04/02 00:50:21;;;;;;;1.88;1.40;;;;;;;8.94;54.74;101634.53;689422;28;21555;-59
2021/04/02 00:50:45;;;;;;;1.55;1.45;;;;;;;8.95;54.73;101625.47;687005;28;138003;-59
2021/04/02 00:51:12;;;;;;;1.40;1.30;;;;;;;8.94;54.79;101626.44;691010;28;91269;-58
2021/04/02 00:51:34;;;;;;;1.60;1.20;;;;;;;8.96;54.89;101632.53;689596;28;145385;-59
2021/04/02 00:51:55;;;;;;;1.40;1.40;;;;;;;8.94;54.93;101631.84;692991;28;43763;-58
2021/04/02 00:52:16;;;;;;;1.77;1.67;;;;;;;8.95;54.73;101629.97;694733;28;1009;-58
2021/04/02 00:52:37;;;;;;;1.83;1.52;;;;;;;8.95;54.81;101625.47;693039;28;44663;-59
2021/04/02 00:52:58;;;;;;;1.70;1.50;;;;;;;8.95;54.78;101633.53;693847;28;20876;-56
2021/04/02 00:53:22;;;;;;;1.50;1.40;;;;;;;8.95;54.73;101630.84;693827;28;11301;-58
2021/04/02 00:53:44;;;;;;;1.50;1.40;;;;;;;8.96;54.69;101629.00;690477;28;92346;-58
2021/04/02 00:54:05;;;;;;;1.40;1.30;;;;;;;8.96;54.75;101629.00;692719;28;46362;-58
2021/04/02 00:54:26;;;;;;;1.55;1.35;;;;;;;8.96;54.63;101629.00;692945;28;23447;-57
2021/04/02 00:54:47;;;;;;;1.50;1.40;;;;;;;8.95;55.02;101633.53;694079;28;23508;-58
2021/04/02 00:55:11;;;;;;;1.50;1.30;;;;;;;8.94;54.81;101634.53;693608;28;23471;-57
2021/04/02 00:55:32;;;;;;;1.40;1.30;;;;;;;8.94;54.64;101631.00;692244;28;63689;-58
2021/04/02 00:55:54;;;;;;;1.50;1.50;;;;;;;8.93;54.49;101632.81;693317;28;21612;-58
2021/04/02 00:56:16;;;;;;;1.52;1.40;;;;;;;8.94;54.37;101639.91;691689;28;68465;-59
2021/04/02 00:56:37;;;;;;;1.90;1.65;;;;;;;8.93;54.42;101632.81;692760;28;44366;-58
2021/04/02 00:56:58;;;;;;;1.50;1.40;;;;;;;8.93;54.56;101631.97;693281;28;23488;-58
2021/04/02 00:57:19;;;;;;;1.33;1.30;;;;;;;8.90;54.65;101637.66;693020;28;22417;-59
2021/04/02 00:57:41;;;;;;;1.15;1.15;;;;;;;8.89;54.79;101634.13;691747;28;23484;-58
2021/04/02 00:58:03;;;;;;;1.55;1.30;;;;;;;8.90;54.63;101634.97;689745;28;16894;-58
2021/04/02 00:58:26;;;;;;;1.73;1.40;;;;;;;8.89;54.70;101633.28;688750;28;46323;-59
2021/04/02 00:58:48;;;;;;;1.33;1.33;;;;;;;8.89;54.67;101636.81;688245;28;69535;-59
2021/04/02 00:59:09;;;;;;;1.58;1.48;;;;;;;8.86;54.60;101637.09;691849;28;45272;-58
2021/04/02 00:59:30;;;;;;;1.65;1.40;;;;;;;8.88;54.73;101635.09;689588;28;23713;-59
2021/04/02 00:59:52;;;;;;;1.38;1.25;;;;;;;8.87;54.79;101627.16;689233;28;22407;-58
2021/04/02 01:00:15;;;;;;;2.55;1.50;;;;;;;8.89;54.78;101642.19;690996;28;22451;-56
2021/04/02 01:00:36;;;;;;;1.67;1.50;;;;;;;8.89;54.53;101631.44;688305;28;92188;-59
2021/04/02 01:00:58;;;;;;;1.50;1.45;;;;;;;8.89;54.79;101639.50;690815;28;22396;-58
2021/04/02 01:01:19;;;;;;;1.42;1.35;;;;;;;8.89;54.56;101633.28;693054;28;1043;-59
2021/04/02 01:01:41;;;;;;;1.20;1.20;;;;;;;8.90;54.57;101630.41;692966;28;18990;-58
2021/04/02 01:02:02;;;;;;;1.45;1.35;;;;;;;8.89;54.33;101635.97;692462;28;16021;-58
2021/04/02 01:02:24;;;;;;;1.73;1.45;;;;;;;8.89;54.59;101638.66;690774;28;22386;-58
2021/04/02 01:02:45;;;;;;;1.85;1.40;;;;;;;8.88;54.35;101635.09;691328;28;1038;-58
2021/04/02 01:03:07;;;;;;;1.50;1.40;;;;;;;8.88;54.58;101631.56;687591;28;44128;-59
2021/04/02 01:03:29;;;;;;;1.50;1.40;;;;;;;8.88;54.55;101637.78;687581;28;6223;-57
2021/04/02 01:03:53;;;;;;;1.60;1.50;;;;;;;8.88;54.38;101637.78;686486;28;115187;-58
2021/04/02 01:04:14;;;;;;;1.60;1.40;;;;;;;8.87;54.56;101635.25;692568;28;46687;-59
2021/04/02 01:04:35;;;;;;;1.48;1.38;;;;;;;8.88;54.54;101639.66;690367;28;23553;-58
2021/04/02 01:04:56;;;;;;;1.42;1.33;;;;;;;8.88;54.61;101635.09;691637;28;5190;-59
2021/04/02 01:05:22;;;;;;;1.48;1.40;;;;;;;8.88;54.61;101640.50;693992;28;16581;-56
2021/04/02 01:05:46;;;;;;;1.52;1.42;;;;;;;8.88;54.54;101637.78;688416;28;138404;-58
2021/04/02 01:06:12;;;;;;;2.03;1.48;;;;;;;8.88;54.55;101628.88;691521;28;69526;-58
2021/04/02 01:06:34;;;;;;;2.28;1.58;;;;;;;8.88;54.27;101634.25;688149;28;137833;-58
2021/04/02 01:06:56;;;;;;;1.40;1.40;;;;;;;8.87;54.52;101630.72;690437;28;23566;-59
2021/04/02 01:07:18;;;;;;;1.52;1.42;;;;;;;8.90;54.49;101632.25;685892;28;93128;-57
2021/04/02 01:07:40;;;;;;;2.80;1.60;;;;;;;8.90;54.33;101634.97;688561;28;22478;-58
2021/04/02 01:08:04;;;;;;;3.33;1.70;;;;;;;8.92;54.25;101638.34;685088;28;33402;-59
2021/04/02 01:08:28;;;;;;;1.50;1.40;;;;;;;8.90;53.99;101632.25;682569;28;85448;-59
2021/04/02 01:08:50;;;;;;;1.50;1.40;;;;;;;8.89;54.04;101627.88;685176;28;92035;-58
2021/04/02 01:09:12;;;;;;;1.50;1.40;;;;;;;8.89;54.36;101631.44;685444;28;68133;-56
2021/04/02 01:09:33;;;;;;;1.45;1.40;;;;;;;8.90;54.20;101637.66;687122;28;13498;-58
2021/04/02 01:09:55;;;;;;;1.50;1.40;;;;;;;8.92;54.06;101638.34;689647;28;1751;-56
2021/04/02 01:10:19;;;;;;;3.50;1.40;;;;;;;8.90;54.00;101630.41;688587;28;23436;-59
2021/04/02 01:10:41;;;;;;;1.25;1.23;;;;;;;8.89;53.89;101634.13;689734;28;37886;-59
2021/04/02 01:11:07;;;;;;;1.83;1.35;;;;;;;8.88;53.78;101635.09;690199;28;21542;-58
2021/04/02 01:11:29;;;;;;;1.95;1.48;;;;;;;8.85;53.78;101630.00;688005;28;137685;-59
2021/04/02 01:11:55;;;;;;;1.92;1.30;;;;;;;8.86;54.06;101645.19;687968;28;138021;-58
2021/04/02 01:12:16;;;;;;;1.40;1.40;;;;;;;8.85;54.10;101627.31;691082;28;33787;-58
2021/04/02 01:12:37;;;;;;;1.45;1.40;;;;;;;8.86;54.13;101630.88;691490;28;23423;-60
2021/04/02 01:13:05;;;;;;;1.40;1.30;;;;;;;8.86;54.11;101637.09;690471;28;38649;-57
2021/04/02 01:13:32;;;;;;;1.20;1.20;;;;;;;8.88;54.00;101636.97;688125;28;15050;-57
2021/04/02 01:13:56;;;;;;;1.48;1.38;;;;;;;8.86;54.31;101638.94;686733;28;61661;-57
2021/04/02 01:14:19;;;;;;;1.80;1.48;;;;;;;8.84;53.99;101639.09;688961;28;37885;-58
2021/04/02 01:14:40;;;;;;;1.60;1.50;;;;;;;8.84;54.04;101641.78;690105;28;13240;-58
2021/04/02 01:15:09;;;;;;;1.58;1.48;;;;;;;8.85;54.03;101640.78;690493;28;1535;-57
2021/04/02 01:15:40;;;;;;;1.55;1.38;;;;;;;8.84;53.82;101636.41;690895;28;61043;-59
2021/04/02 01:16:08;;;;;;;1.60;1.50;;;;;;;8.85;53.92;101635.38;693559;28;61215;-60
2021/04/02 01:16:31;;;;;;;1.73;1.50;;;;;;;8.86;53.91;101638.94;689396;28;136414;-57
2021/04/02 01:16:53;;;;;;;1.30;1.20;;;;;;;8.86;53.90;101631.72;692335;28;16132;-57
2021/04/02 01:17:17;;;;;;;1.50;1.40;;;;;;;8.84;53.50;101637.25;692615;28;1451;-57
2021/04/02 01:17:43;;;;;;;1.50;1.40;;;;;;;8.82;53.51;101638.38;692576;28;1208;-58
2021/04/02 01:18:10;;;;;;;1.40;1.38;;;;;;;8.81;53.63;101634.00;689038;28;116261;-58
2021/04/02 01:18:35;;;;;;;1.60;1.50;;;;;;;8.80;53.61;101634.97;688127;28;130463;-60
2021/04/02 01:18:59;;;;;;;1.75;1.50;;;;;;;8.78;53.68;101637.81;688405;28;134809;-59
2021/04/02 01:19:26;;;;;;;2.10;1.35;;;;;;;8.77;53.76;101635.25;691020;28;80749;-58
2021/04/02 01:19:52;;;;;;;1.45;1.35;;;;;;;8.78;53.73;101639.66;686363;28;136337;-60
2021/04/02 01:20:14;;;;;;;1.52;1.38;;;;;;;8.77;53.66;101635.25;683044;28;135033;-60
2021/04/02 01:20:36;;;;;;;2.20;1.40;;;;;;;8.76;53.75;101639.81;687193;28;22405;-58
2021/04/02 01:20:59;;;;;;;1.60;1.50;;;;;;;8.78;53.84;101636.97;686953;28;45367;-59
2021/04/02 01:21:23;;;;;;;1.85;1.60;;;;;;;8.78;53.75;101639.66;689684;28;31757;-60
2021/04/02 01:21:47;;;;;;;1.38;1.30;;;;;;;8.77;53.72;101636.09;687933;28;111723;-59
2021/04/02 01:22:14;;;;;;;2.85;1.20;;;;;;;8.78;53.70;101639.66;688066;28;113689;-60
2021/04/02 01:22:36;;;;;;;1.70;1.48;;;;;;;8.79;53.72;101639.53;689101;28;137312;-59
2021/04/02 01:23:00;;;;;;;1.52;1.42;;;;;;;8.80;53.74;101637.66;692922;28;22429;-59
2021/04/02 01:23:27;;;;;;;1.52;1.42;;;;;;;8.79;53.77;101646.72;688102;28;90852;-57
2021/04/02 01:24:06;;;;;;;1.40;1.30;;;;;;;8.78;53.67;101645.06;683810;28;137488;-59
2021/04/02 01:24:58;;;;;;;1.85;1.48;;;;;;;8.76;53.79;101642.50;683545;28;125553;-60
2021/04/02 01:25:26;;;;;;;3.30;1.60;;;;;;;8.76;53.69;101638.94;683363;28;138032;-60
2021/04/02 01:25:50;;;;;;;1.58;1.45;;;;;;;8.76;53.93;101647.03;685233;28;138132;-59
2021/04/02 01:26:19;;;;;;;1.60;1.50;;;;;;;8.76;53.75;101638.94;685422;28;92953;-60
2021/04/02 01:27:00;;;;;;;1.42;1.33;;;;;;;8.72;53.96;101634.84;686425;28;137944;-60
2021/04/02 01:27:28;;;;;;;2.40;1.70;;;;;;;8.71;53.79;101647.44;686525;28;123756;-57
2021/04/02 01:28:18;;;;;;;1.50;1.40;;;;;;;8.70;53.61;101645.75;683967;28;136351;-60
2021/04/02 01:28:51;;;;;;;1.60;1.50;;;;;;;8.69;54.03;101654.00;678967;28;135979;-60
2021/04/02 01:29:14;;;;;;;2.20;1.40;;;;;;;8.67;53.97;101648.75;676421;28;149910;-60
2021/04/02 01:29:42;;;;;;;2.05;1.80;;;;;;;8.65;53.89;101648.00;681847;28;61125;-60
2021/04/02 01:30:07;;;;;;;1.60;1.50;;;;;;;8.68;53.71;101644.19;689664;28;137646;-56
2021/04/02 01:30:29;;;;;;;2.10;1.70;;;;;;;8.67;53.91;101646.06;688875;28;132115;-57
2021/04/02 01:30:54;;;;;;;2.83;1.60;;;;;;;8.67;53.81;101646.06;692629;28;1021;-58
2021/04/02 01:31:15;;;;;;;1.50;1.40;;;;;;;8.67;53.81;101646.06;691218;28;69557;-59
2021/04/02 01:31:38;;;;;;;1.75;1.65;;;;;;;8.64;53.83;101647.16;690212;28;46669;-59
2021/04/02 01:32:10;;;;;;;1.88;1.70;;;;;;;8.65;53.92;101648.00;689650;28;60642;-60
2021/04/02 01:32:35;;;;;;;1.90;1.70;;;;;;;8.63;53.84;101650.00;691704;28;1135;-60
2021/04/02 01:32:58;;;;;;;3.00;1.70;;;;;;;8.62;54.06;101653.69;688960;28;138885;-60
2021/04/02 01:33:20;;;;;;;1.53;1.43;;;;;;;8.61;53.99;101647.44;688546;28;69588;-60
2021/04/02 01:33:42;;;;;;;1.60;1.50;;;;;;;8.60;53.96;101644.91;690299;28;36210;-59
2021/04/02 01:34:04;;;;;;;1.80;1.60;;;;;;;8.57;54.19;101648.72;693769;28;11224;-60
2021/04/02 01:34:29;;;;;;;1.70;1.58;;;;;;;8.57;53.92;101651.41;692404;28;70289;-58
2021/04/02 01:34:54;;;;;;;1.67;1.50;;;;;;;8.57;54.18;101648.72;693036;28;115749;-59
2021/04/02 01:35:19;;;;;;;1.60;1.50;;;;;;;8.56;54.32;101643.50;689708;28;138957;-60
2021/04/02 01:35:41;;;;;;;1.65;1.55;;;;;;;8.56;54.38;101644.34;686959;28;90327;-60
2021/04/02 01:36:04;;;;;;;1.70;1.30;;;;;;;8.58;54.15;101641.50;689406;28;45355;-60
2021/04/02 01:36:26;;;;;;;1.50;1.40;;;;;;;8.56;54.28;101647.03;686290;28;69551;-59
2021/04/02 01:36:49;;;;;;;1.33;1.33;;;;;;;8.56;54.28;101643.50;682150;28;44371;-60
2021/04/02 01:37:16;;;;;;;1.52;1.40;;;;;;;8.54;54.33;101645.47;682679;28;77178;-59
2021/04/02 01:37:41;;;;;;;1.48;1.40;;;;;;;8.54;54.29;101646.34;684718;28;139089;-60
2021/04/02 01:38:06;;;;;;;1.50;1.40;;;;;;;8.54;54.38;101646.34;686492;28;95221;-59
2021/04/02 01:38:30;;;;;;;2.35;1.80;;;;;;;8.53;54.22;101641.94;689360;28;103968;-60
2021/04/02 01:38:53;;;;;;;1.65;1.55;;;;;;;8.53;54.48;101646.47;690318;28;92555;-60
2021/04/02 01:39:14;;;;;;;1.80;1.70;;;;;;;8.52;54.47;101647.47;688908;28;89323;-60
2021/04/02 01:39:40;;;;;;;1.60;1.50;;;;;;;8.52;54.65;101644.78;688211;28;69481;-60
2021/04/02 01:40:06;;;;;;;1.65;1.55;;;;;;;8.51;54.67;101643.06;688465;28;92371;-60
2021/04/02 01:40:29;;;;;;;1.63;1.52;;;;;;;8.51;54.64;101645.75;685856;28;138509;-59
2021/04/02 01:40:54;;;;;;;1.65;1.58;;;;;;;8.51;54.67;101652.00;688580;28;116292;-60
2021/04/02 01:41:16;;;;;;;1.70;1.60;;;;;;;8.49;54.70;101645.88;693414;28;92672;-59
2021/04/02 01:41:41;;;;;;;1.27;1.27;;;;;;;8.50;54.49;101646.75;692816;28;46404;-60
2021/04/02 01:42:04;;;;;;;1.42;1.33;;;;;;;8.51;54.67;101643.94;688619;28;93051;-58
2021/04/02 01:42:26;;;;;;;1.40;1.30;;;;;;;8.51;54.67;101652.00;689122;28;40169;-59
2021/04/02 01:42:48;;;;;;;2.70;1.33;;;;;;;8.49;54.38;101648.59;684622;28;69446;-59
2021/04/02 01:43:13;;;;;;;2.95;1.50;;;;;;;8.51;54.64;101646.63;684232;28;69380;-59
2021/04/02 01:43:36;;;;;;;1.60;1.50;;;;;;;8.52;54.52;101651.00;686147;28;62739;-60
2021/04/02 01:43:59;;;;;;;1.50;1.40;;;;;;;8.52;54.56;101645.63;686935;28;78052;-58
2021/04/02 01:44:21;;;;;;;1.60;1.42;;;;;;;8.53;54.37;101651.88;684139;28;90374;-60
2021/04/02 01:44:44;;;;;;;2.20;1.48;;;;;;;8.52;54.46;101656.38;690134;28;46294;-59
2021/04/02 01:45:09;;;;;;;1.63;1.48;;;;;;;8.51;54.51;101659.22;689020;28;68450;-60
2021/04/02 01:45:32;;;;;;;1.65;1.55;;;;;;;8.52;54.52;101656.38;688334;28;92316;-60
2021/04/02 01:45:53;;;;;;;1.63;1.52;;;;;;;8.51;54.51;101659.22;688798;28;45061;-60
2021/04/02 01:46:17;;;;;;;1.70;1.60;;;;;;;8.53;54.58;101654.56;690353;28;92357;-60
2021/04/02 01:46:39;;;;;;;1.38;1.38;;;;;;;8.52;54.50;101660.94;689197;28;46428;-57
2021/04/02 01:47:00;;;;;;;1.52;1.42;;;;;;;8.53;54.54;101663.47;691799;28;23418;-60
2021/04/02 01:47:24;;;;;;;1.50;1.40;;;;;;;8.53;54.54;101654.56;691654;28;40745;-58
2021/04/02 01:47:48;;;;;;;1.55;1.45;;;;;;;8.54;54.48;101657.09;687029;28;115165;-59
2021/04/02 01:48:10;;;;;;;1.70;1.60;;;;;;;8.55;54.47;101650.72;687548;28;69493;-60
2021/04/02 01:48:33;;;;;;;2.55;1.70;;;;;;;8.56;54.33;101659.66;687129;28;44379;-59
2021/04/02 01:48:55;;;;;;;2.08;1.65;;;;;;;8.58;54.65;101654.97;688429;28;44476;-60
2021/04/02 01:49:17;;;;;;;4.13;1.55;;;;;;;8.57;54.29;101656.81;684218;28;89300;-60
2021/04/02 01:49:41;;;;;;;3.08;1.48;;;;;;;8.58;54.21;101657.66;682210;28;69489;-60